createdAt,value
2022-08-26T00:02:05.392Z,1077
2022-08-26T00:07:34.464Z,1066
2022-08-26T00:13:04.632Z,1066
2022-08-26T00:18:38.839Z,1073
2022-08-26T00:24:03.864Z,1074
2022-08-26T00:29:35.481Z,1076
2022-08-26T00:35:03.131Z,1068
2022-08-26T00:40:33.373Z,1073
2022-08-26T00:46:03.459Z,1058
2022-08-26T00:51:32.636Z,1052
2022-08-26T00:57:02.775Z,1038
2022-08-26T01:02:32.974Z,1022
2022-08-26T01:08:03.674Z,1019
2022-08-26T01:13:32.104Z,1013
2022-08-26T01:19:02.250Z,1004
2022-08-26T01:24:32.339Z,1010
2022-08-26T01:30:01.454Z,999
2022-08-26T01:35:31.558Z,999
2022-08-26T01:41:01.678Z,986
2022-08-26T01:46:30.777Z,985
2022-08-26T01:52:00.884Z,982
2022-08-26T01:57:30.988Z,973
2022-08-26T02:04:06.190Z,971
2022-08-26T02:09:38.423Z,969
2022-08-26T02:15:05.661Z,958
2022-08-26T02:20:35.470Z,952
2022-08-26T02:26:05.596Z,947
2022-08-26T02:31:34.758Z,939
2022-08-26T02:37:04.794Z,934
2022-08-26T02:42:34.985Z,929
2022-08-26T02:48:04.024Z,927
2022-08-26T02:53:35.673Z,928
2022-08-26T02:59:04.259Z,929
2022-08-26T03:04:33.476Z,924
2022-08-26T03:10:08.332Z,929
2022-08-26T03:15:32.658Z,921
2022-08-26T03:21:01.761Z,918
2022-08-26T03:26:31.978Z,912
2022-08-26T03:32:01.120Z,908
2022-08-26T03:37:31.233Z,903
2022-08-26T03:43:01.389Z,901
2022-08-26T03:48:30.495Z,903
2022-08-26T03:54:00.653Z,908
2022-08-26T03:59:30.783Z,912
2022-08-26T04:04:59.906Z,906
2022-08-26T04:10:30.038Z,899
2022-08-26T04:16:00.273Z,895
2022-08-26T04:21:29.330Z,895
2022-08-26T04:26:59.486Z,903
2022-08-26T04:32:28.709Z,818
2022-08-26T04:37:58.832Z,815
2022-08-26T04:43:29.105Z,816
2022-08-26T04:48:58.290Z,847
2022-08-26T04:54:28.469Z,823
2022-08-26T04:59:58.615Z,850
2022-08-26T05:05:27.824Z,867
2022-08-26T05:10:57.939Z,868
2022-08-26T05:16:28.148Z,873
2022-08-26T05:21:57.205Z,876
2022-08-26T05:27:27.285Z,871
2022-08-26T05:32:57.403Z,877
2022-08-26T05:38:26.813Z,878
2022-08-26T05:43:56.802Z,874
2022-08-26T05:49:26.885Z,878
2022-08-26T05:54:56.057Z,875
2022-08-26T06:00:26.220Z,878
2022-08-26T06:05:55.372Z,871
2022-08-26T06:11:25.507Z,869
2022-08-26T06:16:55.621Z,865
2022-08-26T06:22:24.756Z,868
2022-08-26T06:27:54.897Z,867
2022-08-26T06:33:24.975Z,865
2022-08-26T06:38:54.074Z,870
2022-08-26T06:44:24.327Z,870
2022-08-26T06:49:53.423Z,867
2022-08-26T06:55:27.127Z,863
2022-08-26T07:00:53.654Z,862
2022-08-26T07:06:22.770Z,859
2022-08-26T07:11:52.866Z,862
2022-08-26T07:17:25.002Z,861
2022-08-26T07:22:52.119Z,860
2022-08-26T07:28:22.213Z,868
2022-08-26T07:33:52.325Z,869
2022-08-26T07:39:21.481Z,868
2022-08-26T07:44:51.648Z,864
2022-08-26T07:50:21.840Z,863
2022-08-26T07:55:50.983Z,864
2022-08-26T08:01:21.297Z,859
2022-08-26T08:06:51.413Z,860
2022-08-26T08:12:20.562Z,866
2022-08-26T08:17:51.676Z,862
2022-08-26T08:23:20.848Z,864
2022-08-26T08:28:50.011Z,852
2022-08-26T08:34:21.610Z,854
2022-08-26T08:39:50.353Z,855
2022-08-26T08:45:19.428Z,857
2022-08-26T08:50:49.564Z,844
2022-08-26T08:56:18.741Z,848
2022-08-26T09:01:52.344Z,853
2022-08-26T09:07:19.124Z,849
2022-08-26T09:12:48.276Z,847
2022-08-26T09:18:18.475Z,838
2022-08-26T09:23:49.777Z,845
2022-08-26T09:34:48.963Z,841
2022-08-26T09:40:19.121Z,849
2022-08-26T09:45:50.646Z,843
2022-08-26T09:51:18.217Z,842
2022-08-26T09:56:47.337Z,838
2022-08-26T10:02:17.484Z,833
2022-08-26T10:07:47.623Z,838
2022-08-26T10:13:17.736Z,840
2022-08-26T10:18:46.904Z,833
2022-08-26T10:24:16.966Z,840
2022-08-26T10:29:47.079Z,836
2022-08-26T10:35:16.308Z,832
2022-08-26T10:40:46.388Z,831
2022-08-26T10:46:16.554Z,833
2022-08-26T10:51:45.787Z,834
2022-08-26T10:57:15.847Z,820
2022-08-26T11:02:46.983Z,828
2022-08-26T11:08:15.100Z,829
2022-08-26T11:13:45.225Z,826
2022-08-26T11:19:14.376Z,826
2022-08-26T11:24:44.474Z,822
2022-08-26T11:30:14.587Z,823
2022-08-26T11:35:44.962Z,829
2022-08-26T11:41:15.108Z,825
2022-08-26T11:46:45.248Z,825
2022-08-26T11:52:14.392Z,829
2022-08-26T11:57:44.479Z,826
2022-08-26T12:03:14.612Z,819
2022-08-26T12:08:43.701Z,822
2022-08-26T12:14:13.820Z,820
2022-08-26T12:19:43.923Z,822
2022-08-26T12:25:13.036Z,821
2022-08-26T12:30:43.131Z,820
2022-08-26T12:36:12.258Z,823
2022-08-26T12:41:42.377Z,822
2022-08-26T12:47:12.496Z,818
2022-08-26T12:52:42.648Z,823
2022-08-26T12:58:11.801Z,811
2022-08-26T13:03:41.934Z,813
2022-08-26T13:09:12.071Z,816
2022-08-26T13:14:41.212Z,808
2022-08-26T13:20:11.325Z,806
2022-08-26T13:25:41.478Z,809
2022-08-26T13:31:10.629Z,815
2022-08-26T13:36:40.703Z,818
2022-08-26T13:42:10.841Z,812
2022-08-26T13:47:39.973Z,817
2022-08-26T13:53:10.098Z,806
2022-08-26T13:58:40.235Z,825
2022-08-26T14:04:09.399Z,853
2022-08-26T14:09:39.534Z,858
2022-08-26T14:15:08.685Z,852
2022-08-26T14:20:38.786Z,948
2022-08-26T14:26:08.916Z,880
2022-08-26T14:31:38.122Z,880
2022-08-26T14:37:09.878Z,872
2022-08-26T14:42:38.306Z,877
2022-08-26T14:48:07.640Z,899
2022-08-26T14:53:37.479Z,913
2022-08-26T14:59:07.621Z,913
2022-08-26T15:04:36.811Z,913
2022-08-26T15:10:06.954Z,910
2022-08-26T15:15:36.117Z,922
2022-08-26T15:21:06.278Z,890
2022-08-26T15:26:36.385Z,890
2022-08-26T15:32:05.540Z,878
2022-08-26T15:37:35.648Z,876
2022-08-26T15:43:18.395Z,894
2022-08-26T15:48:34.930Z,886
2022-08-26T15:54:05.107Z,880
2022-08-26T15:59:35.148Z,841
2022-08-26T16:05:04.304Z,799
2022-08-26T16:10:34.438Z,798
2022-08-26T16:16:04.648Z,787
2022-08-26T16:21:33.760Z,788
2022-08-26T16:27:03.907Z,812
2022-08-26T16:32:33.070Z,807
2022-08-26T16:38:03.322Z,804
2022-08-26T16:43:33.359Z,792
2022-08-26T16:49:02.539Z,793
2022-08-26T16:54:32.656Z,798
2022-08-26T17:00:02.786Z,788
2022-08-26T17:05:31.960Z,796
2022-08-26T17:11:02.162Z,791
2022-08-26T17:16:32.370Z,787
2022-08-26T17:22:01.471Z,783
2022-08-26T17:27:31.660Z,778
2022-08-26T17:33:00.818Z,775
2022-08-26T17:38:30.993Z,776
2022-08-26T17:44:01.134Z,766
2022-08-26T17:49:30.316Z,769
2022-08-26T17:55:00.477Z,770
2022-08-26T18:00:29.627Z,772
2022-08-26T18:05:59.880Z,770
2022-08-26T18:11:29.081Z,761
2022-08-26T18:16:59.190Z,760
2022-08-26T18:22:29.381Z,769
2022-08-26T18:27:58.558Z,770
2022-08-26T18:33:28.714Z,765
2022-08-26T18:38:58.851Z,768
2022-08-26T18:44:28.032Z,771
2022-08-26T18:49:58.172Z,765
2022-08-26T18:55:28.327Z,768
2022-08-26T19:00:57.473Z,769
2022-08-26T19:06:27.628Z,767
2022-08-26T19:11:57.824Z,768
2022-08-26T19:17:26.942Z,769
2022-08-26T19:22:59.672Z,768
2022-08-26T19:28:26.390Z,757
2022-08-26T19:33:56.797Z,760
2022-08-26T19:39:26.712Z,765
2022-08-26T19:44:55.914Z,763
2022-08-26T19:50:26.060Z,759
2022-08-26T19:55:55.249Z,753
2022-08-26T20:01:25.502Z,755
2022-08-26T20:06:57.809Z,758
2022-08-26T20:12:24.758Z,756
2022-08-26T20:17:54.941Z,771
2022-08-26T20:23:25.085Z,778
2022-08-26T20:28:54.269Z,787
2022-08-26T20:34:24.466Z,802
2022-08-26T20:39:53.824Z,807
2022-08-26T20:45:23.957Z,799
2022-08-26T20:50:54.148Z,783
2022-08-26T20:56:23.333Z,780
2022-08-26T21:01:53.523Z,781
2022-08-26T21:07:22.699Z,775
2022-08-26T21:12:52.895Z,776
2022-08-26T21:18:23.104Z,767
2022-08-26T21:23:52.566Z,765
2022-08-26T21:29:22.548Z,767
2022-08-26T21:34:52.741Z,778
2022-08-26T21:40:21.088Z,776
2022-08-26T21:45:51.291Z,784
2022-08-26T21:51:21.462Z,790
2022-08-26T21:56:50.761Z,802
2022-08-26T22:02:21.045Z,795
2022-08-26T22:07:50.266Z,810
2022-08-26T22:13:20.513Z,810
2022-08-26T22:18:50.777Z,797
2022-08-26T22:24:20.021Z,800
2022-08-26T22:29:50.249Z,803
2022-08-26T22:35:29.387Z,802
2022-08-26T22:40:49.773Z,797
2022-08-26T22:46:20.003Z,803
2022-08-26T22:51:49.292Z,807
2022-08-26T22:57:19.650Z,806
2022-08-26T23:02:49.900Z,808
2022-08-26T23:08:19.177Z,811
2022-08-26T23:13:49.382Z,800
2022-08-26T23:19:19.617Z,803
2022-08-26T23:24:48.866Z,808
2022-08-26T23:30:19.117Z,809
2022-08-26T23:35:48.376Z,806
2022-08-26T23:41:18.731Z,808
2022-08-26T23:46:48.939Z,812
2022-08-26T23:52:18.229Z,810
2022-08-26T23:57:48.441Z,806
